sensor_id;sensor_type;location;lat;lon;timestamp;P1;durP1;ratioP1;P2;durP2;ratioP2
17390;SDS011;8813;54.444;18.446;2023-01-01T00:01:30;9.27;;;8.98;;
17390;SDS011;8813;54.444;18.446;2023-01-01T00:04:06;10.00;;;9.60;;
17390;SDS011;8813;54.444;18.446;2023-01-01T00:06:42;8.02;;;7.65;;
17390;SDS011;8813;54.444;18.446;2023-01-01T00:09:11;9.65;;;9.25;;
17390;SDS011;8813;54.444;18.446;2023-01-01T00:11:56;9.35;;;8.95;;
17390;SDS011;8813;54.444;18.446;2023-01-01T00:14:26;8.55;;;8.25;;
17390;SDS011;8813;54.444;18.446;2023-01-01T00:16:54;8.32;;;8.02;;
17390;SDS011;8813;54.444;18.446;2023-01-01T00:19:25;6.97;;;6.78;;
17390;SDS011;8813;54.444;18.446;2023-01-01T00:21:54;7.85;;;7.65;;
17390;SDS011;8813;54.444;18.446;2023-01-01T00:24:22;7.60;;;7.40;;
17390;SDS011;8813;54.444;18.446;2023-01-01T00:26:51;7.45;;;6.90;;
17390;SDS011;8813;54.444;18.446;2023-01-01T00:29:19;8.13;;;7.82;;
17390;SDS011;8813;54.444;18.446;2023-01-01T00:31:47;5.95;;;5.85;;
17390;SDS011;8813;54.444;18.446;2023-01-01T00:34:14;6.28;;;6.07;;
17390;SDS011;8813;54.444;18.446;2023-01-01T00:36:46;6.88;;;6.47;;
17390;SDS011;8813;54.444;18.446;2023-01-01T00:39:13;6.35;;;6.05;;
17390;SDS011;8813;54.444;18.446;2023-01-01T00:41:41;6.00;;;5.68;;
17390;SDS011;8813;54.444;18.446;2023-01-01T00:44:10;5.45;;;5.25;;
17390;SDS011;8813;54.444;18.446;2023-01-01T00:46:39;5.75;;;5.55;;
17390;SDS011;8813;54.444;18.446;2023-01-01T00:49:06;6.15;;;5.85;;
17390;SDS011;8813;54.444;18.446;2023-01-01T00:51:34;5.57;;;5.40;;
17390;SDS011;8813;54.444;18.446;2023-01-01T00:54:05;7.05;;;5.57;;
17390;SDS011;8813;54.444;18.446;2023-01-01T00:56:34;5.20;;;5.10;;
17390;SDS011;8813;54.444;18.446;2023-01-01T00:59:01;5.55;;;5.35;;
17390;SDS011;8813;54.444;18.446;2023-01-01T01:01:28;5.38;;;5.05;;
17390;SDS011;8813;54.444;18.446;2023-01-01T01:03:55;5.40;;;5.05;;
17390;SDS011;8813;54.444;18.446;2023-01-01T01:06:24;4.53;;;4.43;;
17390;SDS011;8813;54.444;18.446;2023-01-01T01:08:54;4.90;;;4.60;;
17390;SDS011;8813;54.444;18.446;2023-01-01T01:11:23;27.38;;;5.68;;
17390;SDS011;8813;54.444;18.446;2023-01-01T01:13:51;5.93;;;5.35;;
17390;SDS011;8813;54.444;18.446;2023-01-01T01:16:22;3.97;;;3.88;;
17390;SDS011;8813;54.444;18.446;2023-01-01T01:18:50;3.60;;;3.50;;
17390;SDS011;8813;54.444;18.446;2023-01-01T01:21:19;4.00;;;3.80;;
17390;SDS011;8813;54.444;18.446;2023-01-01T01:23:47;3.40;;;3.30;;
17390;SDS011;8813;54.444;18.446;2023-01-01T01:26:15;3.55;;;3.38;;
17390;SDS011;8813;54.444;18.446;2023-01-01T01:28:47;2.80;;;2.80;;
17390;SDS011;8813;54.444;18.446;2023-01-01T01:31:14;3.33;;;3.10;;
17390;SDS011;8813;54.444;18.446;2023-01-01T01:33:42;3.47;;;3.30;;
17390;SDS011;8813;54.444;18.446;2023-01-01T01:36:10;3.38;;;3.28;;
17390;SDS011;8813;54.444;18.446;2023-01-01T01:38:37;4.30;;;3.78;;
17390;SDS011;8813;54.444;18.446;2023-01-01T01:41:07;3.40;;;3.20;;
17390;SDS011;8813;54.444;18.446;2023-01-01T01:46:29;3.28;;;3.17;;
17390;SDS011;8813;54.444;18.446;2023-01-01T01:49:00;2.80;;;2.70;;
17390;SDS011;8813;54.444;18.446;2023-01-01T01:51:32;2.63;;;2.60;;
17390;SDS011;8813;54.444;18.446;2023-01-01T01:54:02;2.80;;;2.70;;
17390;SDS011;8813;54.444;18.446;2023-01-01T01:56:36;2.88;;;2.78;;
17390;SDS011;8813;54.444;18.446;2023-01-01T01:59:14;3.17;;;2.88;;
17390;SDS011;8813;54.444;18.446;2023-01-01T02:01:42;2.72;;;2.33;;
17390;SDS011;8813;54.444;18.446;2023-01-01T02:04:12;2.67;;;2.58;;
17390;SDS011;8813;54.444;18.446;2023-01-01T02:06:40;2.65;;;2.50;;
17390;SDS011;8813;54.444;18.446;2023-01-01T02:09:09;2.25;;;2.20;;
17390;SDS011;8813;54.444;18.446;2023-01-01T02:11:37;2.42;;;2.33;;
17390;SDS011;8813;54.444;18.446;2023-01-01T02:14:06;2.22;;;2.13;;
17390;SDS011;8813;54.444;18.446;2023-01-01T02:16:38;2.47;;;2.30;;
17390;SDS011;8813;54.444;18.446;2023-01-01T02:19:17;2.25;;;2.20;;
17390;SDS011;8813;54.444;18.446;2023-01-01T02:21:51;2.75;;;2.65;;
17390;SDS011;8813;54.444;18.446;2023-01-01T02:27:18;6.68;;;3.33;;
17390;SDS011;8813;54.444;18.446;2023-01-01T02:29:53;2.42;;;2.33;;
17390;SDS011;8813;54.444;18.446;2023-01-01T02:32:23;2.97;;;2.40;;
17390;SDS011;8813;54.444;18.446;2023-01-01T02:34:54;1.85;;;1.85;;
17390;SDS011;8813;54.444;18.446;2023-01-01T02:37:23;3.92;;;2.42;;
17390;SDS011;8813;54.444;18.446;2023-01-01T02:39:53;4.35;;;3.03;;
17390;SDS011;8813;54.444;18.446;2023-01-01T02:42:23;2.08;;;1.98;;
17390;SDS011;8813;54.444;18.446;2023-01-01T02:45:02;2.05;;;1.98;;
17390;SDS011;8813;54.444;18.446;2023-01-01T02:47:30;1.95;;;1.85;;
17390;SDS011;8813;54.444;18.446;2023-01-01T02:49:58;2.30;;;2.20;;
17390;SDS011;8813;54.444;18.446;2023-01-01T02:52:42;2.20;;;2.10;;
17390;SDS011;8813;54.444;18.446;2023-01-01T02:55:19;2.70;;;2.60;;
17390;SDS011;8813;54.444;18.446;2023-01-01T02:57:55;2.40;;;2.30;;
17390;SDS011;8813;54.444;18.446;2023-01-01T03:00:48;2.05;;;2.00;;
17390;SDS011;8813;54.444;18.446;2023-01-01T03:03:17;2.03;;;1.92;;
17390;SDS011;8813;54.444;18.446;2023-01-01T03:05:47;2.55;;;2.45;;
17390;SDS011;8813;54.444;18.446;2023-01-01T03:08:38;1.73;;;1.73;;
17390;SDS011;8813;54.444;18.446;2023-01-01T03:11:11;2.03;;;2.03;;
17390;SDS011;8813;54.444;18.446;2023-01-01T03:13:41;2.22;;;2.13;;
17390;SDS011;8813;54.444;18.446;2023-01-01T03:16:16;2.65;;;2.10;;
17390;SDS011;8813;54.444;18.446;2023-01-01T03:18:46;15.27;;;2.45;;
17390;SDS011;8813;54.444;18.446;2023-01-01T03:21:35;1.67;;;1.67;;
17390;SDS011;8813;54.444;18.446;2023-01-01T03:24:05;2.80;;;2.03;;
17390;SDS011;8813;54.444;18.446;2023-01-01T03:26:33;5.93;;;2.25;;
17390;SDS011;8813;54.444;18.446;2023-01-01T03:29:00;1.90;;;1.80;;
17390;SDS011;8813;54.444;18.446;2023-01-01T03:31:32;28.63;;;2.45;;
17390;SDS011;8813;54.444;18.446;2023-01-01T03:34:01;1.90;;;1.90;;
17390;SDS011;8813;54.444;18.446;2023-01-01T03:36:31;2.22;;;2.13;;
17390;SDS011;8813;54.444;18.446;2023-01-01T03:39:03;2.13;;;2.03;;
17390;SDS011;8813;54.444;18.446;2023-01-01T03:41:33;3.28;;;2.45;;
17390;SDS011;8813;54.444;18.446;2023-01-01T03:44:07;1.67;;;1.67;;
17390;SDS011;8813;54.444;18.446;2023-01-01T03:46:41;3.33;;;3.13;;
17390;SDS011;8813;54.444;18.446;2023-01-01T03:49:09;3.17;;;2.05;;
17390;SDS011;8813;54.444;18.446;2023-01-01T03:51:43;1.45;;;1.35;;
17390;SDS011;8813;54.444;18.446;2023-01-01T03:54:27;2.05;;;1.90;;
17390;SDS011;8813;54.444;18.446;2023-01-01T03:57:12;4.15;;;2.22;;
17390;SDS011;8813;54.444;18.446;2023-01-01T03:59:48;8.30;;;1.40;;
17390;SDS011;8813;54.444;18.446;2023-01-01T04:02:26;1.80;;;1.60;;
17390;SDS011;8813;54.444;18.446;2023-01-01T04:04:57;1.48;;;1.48;;
17390;SDS011;8813;54.444;18.446;2023-01-01T04:07:26;2.17;;;1.98;;
17390;SDS011;8813;54.444;18.446;2023-01-01T04:09:55;1.70;;;1.70;;
17390;SDS011;8813;54.444;18.446;2023-01-01T04:12:24;7.60;;;1.52;;
17390;SDS011;8813;54.444;18.446;2023-01-01T04:14:57;1.95;;;1.88;;
17390;SDS011;8813;54.444;18.446;2023-01-01T04:17:26;2.38;;;2.17;;
17390;SDS011;8813;54.444;18.446;2023-01-01T04:19:53;1.15;;;1.15;;
17390;SDS011;8813;54.444;18.446;2023-01-01T04:22:22;3.28;;;2.17;;
17390;SDS011;8813;54.444;18.446;2023-01-01T04:24:50;1.45;;;1.35;;
17390;SDS011;8813;54.444;18.446;2023-01-01T04:27:17;3.60;;;2.05;;
17390;SDS011;8813;54.444;18.446;2023-01-01T04:29:45;1.73;;;1.65;;
17390;SDS011;8813;54.444;18.446;2023-01-01T04:32:14;2.95;;;1.70;;
17390;SDS011;8813;54.444;18.446;2023-01-01T04:34:46;2.80;;;2.30;;
17390;SDS011;8813;54.444;18.446;2023-01-01T04:37:13;3.42;;;3.00;;
17390;SDS011;8813;54.444;18.446;2023-01-01T04:39:41;7.65;;;3.28;;
17390;SDS011;8813;54.444;18.446;2023-01-01T04:42:09;3.90;;;3.47;;
17390;SDS011;8813;54.444;18.446;2023-01-01T04:44:36;6.80;;;3.78;;
17390;SDS011;8813;54.444;18.446;2023-01-01T04:47:04;5.22;;;3.30;;
17390;SDS011;8813;54.444;18.446;2023-01-01T04:49:32;3.67;;;3.35;;
17390;SDS011;8813;54.444;18.446;2023-01-01T04:52:04;3.58;;;3.28;;
17390;SDS011;8813;54.444;18.446;2023-01-01T04:54:31;6.82;;;3.78;;
17390;SDS011;8813;54.444;18.446;2023-01-01T04:56:59;5.50;;;3.67;;
17390;SDS011;8813;54.444;18.446;2023-01-01T04:59:28;6.10;;;3.40;;
17390;SDS011;8813;54.444;18.446;2023-01-01T05:01:55;7.07;;;4.03;;
17390;SDS011;8813;54.444;18.446;2023-01-01T05:04:26;4.05;;;3.42;;
17390;SDS011;8813;54.444;18.446;2023-01-01T05:06:53;4.13;;;3.35;;
17390;SDS011;8813;54.444;18.446;2023-01-01T05:09:27;4.00;;;3.60;;
17390;SDS011;8813;54.444;18.446;2023-01-01T05:11:56;7.40;;;3.47;;
17390;SDS011;8813;54.444;18.446;2023-01-01T05:14:24;5.05;;;3.85;;
17390;SDS011;8813;54.444;18.446;2023-01-01T05:16:58;4.45;;;3.40;;
17390;SDS011;8813;54.444;18.446;2023-01-01T05:19:27;8.52;;;4.50;;
17390;SDS011;8813;54.444;18.446;2023-01-01T05:21:55;3.75;;;3.45;;
17390;SDS011;8813;54.444;18.446;2023-01-01T05:24:23;5.78;;;3.65;;
17390;SDS011;8813;54.444;18.446;2023-01-01T05:26:54;4.97;;;3.88;;
17390;SDS011;8813;54.444;18.446;2023-01-01T05:29:21;5.35;;;3.78;;
17390;SDS011;8813;54.444;18.446;2023-01-01T05:31:48;4.28;;;3.78;;
17390;SDS011;8813;54.444;18.446;2023-01-01T05:34:16;5.40;;;4.03;;
17390;SDS011;8813;54.444;18.446;2023-01-01T05:36:43;6.03;;;4.50;;
17390;SDS011;8813;54.444;18.446;2023-01-01T05:39:14;5.22;;;3.92;;
17390;SDS011;8813;54.444;18.446;2023-01-01T05:41:41;5.25;;;4.05;;
17390;SDS011;8813;54.444;18.446;2023-01-01T05:44:11;8.02;;;4.20;;
17390;SDS011;8813;54.444;18.446;2023-01-01T05:46:40;5.95;;;4.25;;
17390;SDS011;8813;54.444;18.446;2023-01-01T05:49:09;7.45;;;4.72;;
17390;SDS011;8813;54.444;18.446;2023-01-01T05:51:37;8.63;;;4.88;;
17390;SDS011;8813;54.444;18.446;2023-01-01T05:54:04;10.90;;;4.60;;
17390;SDS011;8813;54.444;18.446;2023-01-01T05:56:31;5.40;;;4.53;;
17390;SDS011;8813;54.444;18.446;2023-01-01T05:59:01;6.13;;;4.45;;
17390;SDS011;8813;54.444;18.446;2023-01-01T06:01:30;8.02;;;5.03;;
17390;SDS011;8813;54.444;18.446;2023-01-01T06:03:58;6.03;;;4.85;;
17390;SDS011;8813;54.444;18.446;2023-01-01T06:06:25;8.48;;;4.47;;
17390;SDS011;8813;54.444;18.446;2023-01-01T06:08:55;6.90;;;4.85;;
17390;SDS011;8813;54.444;18.446;2023-01-01T06:11:24;5.57;;;4.95;;
17390;SDS011;8813;54.444;18.446;2023-01-01T06:13:51;9.45;;;5.45;;
17390;SDS011;8813;54.444;18.446;2023-01-01T06:16:21;8.55;;;5.28;;
17390;SDS011;8813;54.444;18.446;2023-01-01T06:18:50;6.88;;;5.63;;
17390;SDS011;8813;54.444;18.446;2023-01-01T06:21:17;8.27;;;6.05;;
17390;SDS011;8813;54.444;18.446;2023-01-01T06:23:46;6.53;;;5.93;;
17390;SDS011;8813;54.444;18.446;2023-01-01T06:26:15;9.15;;;6.72;;
17390;SDS011;8813;54.444;18.446;2023-01-01T06:28:46;6.07;;;5.57;;
17390;SDS011;8813;54.444;18.446;2023-01-01T06:31:16;9.45;;;6.85;;
17390;SDS011;8813;54.444;18.446;2023-01-01T06:33:45;9.07;;;6.50;;
17390;SDS011;8813;54.444;18.446;2023-01-01T06:36:19;12.80;;;6.75;;
17390;SDS011;8813;54.444;18.446;2023-01-01T06:38:47;7.88;;;6.32;;
17390;SDS011;8813;54.444;18.446;2023-01-01T06:41:16;9.35;;;6.35;;
17390;SDS011;8813;54.444;18.446;2023-01-01T06:43:44;12.98;;;6.65;;
17390;SDS011;8813;54.444;18.446;2023-01-01T06:46:13;8.20;;;6.50;;
17390;SDS011;8813;54.444;18.446;2023-01-01T06:48:43;8.13;;;7.32;;
17390;SDS011;8813;54.444;18.446;2023-01-01T06:51:12;8.40;;;6.45;;
17390;SDS011;8813;54.444;18.446;2023-01-01T06:53:41;12.63;;;6.57;;
17390;SDS011;8813;54.444;18.446;2023-01-01T06:56:08;11.82;;;7.22;;
17390;SDS011;8813;54.444;18.446;2023-01-01T06:58:40;7.72;;;6.75;;
17390;SDS011;8813;54.444;18.446;2023-01-01T07:01:09;10.20;;;7.13;;
17390;SDS011;8813;54.444;18.446;2023-01-01T07:03:37;10.75;;;7.25;;
17390;SDS011;8813;54.444;18.446;2023-01-01T07:06:06;10.57;;;6.60;;
17390;SDS011;8813;54.444;18.446;2023-01-01T07:08:36;8.82;;;6.55;;
17390;SDS011;8813;54.444;18.446;2023-01-01T07:11:05;9.93;;;7.13;;
17390;SDS011;8813;54.444;18.446;2023-01-01T07:13:33;9.85;;;6.88;;
17390;SDS011;8813;54.444;18.446;2023-01-01T07:16:02;9.07;;;6.43;;
17390;SDS011;8813;54.444;18.446;2023-01-01T07:18:30;11.82;;;6.47;;
17390;SDS011;8813;54.444;18.446;2023-01-01T07:20:58;9.23;;;6.30;;
17390;SDS011;8813;54.444;18.446;2023-01-01T07:23:30;8.85;;;5.93;;
17390;SDS011;8813;54.444;18.446;2023-01-01T07:26:01;8.93;;;5.90;;
17390;SDS011;8813;54.444;18.446;2023-01-01T07:28:35;14.27;;;6.20;;
17390;SDS011;8813;54.444;18.446;2023-01-01T07:31:02;8.13;;;5.72;;
17390;SDS011;8813;54.444;18.446;2023-01-01T07:33:30;8.68;;;5.88;;
17390;SDS011;8813;54.444;18.446;2023-01-01T07:35:57;10.70;;;6.28;;
17390;SDS011;8813;54.444;18.446;2023-01-01T07:38:24;7.15;;;6.18;;
17390;SDS011;8813;54.444;18.446;2023-01-01T07:40:51;10.88;;;6.30;;
17390;SDS011;8813;54.444;18.446;2023-01-01T07:43:22;10.18;;;5.97;;
17390;SDS011;8813;54.444;18.446;2023-01-01T07:45:49;11.40;;;5.30;;
17390;SDS011;8813;54.444;18.446;2023-01-01T07:48:17;9.60;;;5.68;;
17390;SDS011;8813;54.444;18.446;2023-01-01T07:50:46;8.35;;;5.93;;
17390;SDS011;8813;54.444;18.446;2023-01-01T07:53:14;7.55;;;5.70;;
17390;SDS011;8813;54.444;18.446;2023-01-01T07:55:42;9.55;;;5.30;;
17390;SDS011;8813;54.444;18.446;2023-01-01T07:58:10;10.10;;;5.60;;
17390;SDS011;8813;54.444;18.446;2023-01-01T08:00:46;8.43;;;5.78;;
17390;SDS011;8813;54.444;18.446;2023-01-01T08:03:13;6.68;;;5.40;;
17390;SDS011;8813;54.444;18.446;2023-01-01T08:05:41;7.93;;;5.68;;
17390;SDS011;8813;54.444;18.446;2023-01-01T08:08:08;7.28;;;4.93;;
17390;SDS011;8813;54.444;18.446;2023-01-01T08:10:37;6.05;;;4.40;;
17390;SDS011;8813;54.444;18.446;2023-01-01T08:13:06;9.95;;;4.80;;
17390;SDS011;8813;54.444;18.446;2023-01-01T08:15:34;7.22;;;4.75;;
17390;SDS011;8813;54.444;18.446;2023-01-01T08:18:03;10.45;;;4.88;;
17390;SDS011;8813;54.444;18.446;2023-01-01T08:20:31;7.32;;;4.55;;
17390;SDS011;8813;54.444;18.446;2023-01-01T08:22:59;6.70;;;5.03;;
17390;SDS011;8813;54.444;18.446;2023-01-01T08:25:26;8.02;;;4.57;;
17390;SDS011;8813;54.444;18.446;2023-01-01T08:27:53;7.35;;;4.85;;
17390;SDS011;8813;54.444;18.446;2023-01-01T08:30:20;5.25;;;4.53;;
17390;SDS011;8813;54.444;18.446;2023-01-01T08:32:47;10.68;;;4.88;;
17390;SDS011;8813;54.444;18.446;2023-01-01T08:35:18;6.50;;;4.70;;
17390;SDS011;8813;54.444;18.446;2023-01-01T08:37:45;7.65;;;4.40;;
17390;SDS011;8813;54.444;18.446;2023-01-01T08:40:13;5.57;;;4.13;;
17390;SDS011;8813;54.444;18.446;2023-01-01T08:42:40;9.02;;;5.38;;
17390;SDS011;8813;54.444;18.446;2023-01-01T08:45:09;7.78;;;4.43;;
17390;SDS011;8813;54.444;18.446;2023-01-01T08:47:36;7.20;;;3.97;;
17390;SDS011;8813;54.444;18.446;2023-01-01T08:50:04;5.18;;;4.10;;
17390;SDS011;8813;54.444;18.446;2023-01-01T08:52:35;5.75;;;4.80;;
17390;SDS011;8813;54.444;18.446;2023-01-01T08:55:02;6.88;;;4.90;;
17390;SDS011;8813;54.444;18.446;2023-01-01T08:57:30;7.47;;;4.85;;
17390;SDS011;8813;54.444;18.446;2023-01-01T08:59:59;7.22;;;4.40;;
17390;SDS011;8813;54.444;18.446;2023-01-01T09:02:35;9.57;;;4.80;;
17390;SDS011;8813;54.444;18.446;2023-01-01T09:05:05;8.52;;;4.22;;
17390;SDS011;8813;54.444;18.446;2023-01-01T09:07:40;5.55;;;4.40;;
17390;SDS011;8813;54.444;18.446;2023-01-01T09:10:08;5.85;;;4.10;;
17390;SDS011;8813;54.444;18.446;2023-01-01T09:12:35;6.70;;;4.30;;
17390;SDS011;8813;54.444;18.446;2023-01-01T09:15:03;6.53;;;4.80;;
17390;SDS011;8813;54.444;18.446;2023-01-01T09:17:33;5.65;;;4.85;;
17390;SDS011;8813;54.444;18.446;2023-01-01T09:20:03;7.88;;;4.95;;
17390;SDS011;8813;54.444;18.446;2023-01-01T09:22:31;4.95;;;4.10;;
17390;SDS011;8813;54.444;18.446;2023-01-01T09:25:01;6.15;;;4.20;;
17390;SDS011;8813;54.444;18.446;2023-01-01T09:27:31;5.85;;;4.55;;
17390;SDS011;8813;54.444;18.446;2023-01-01T09:30:00;11.48;;;6.75;;
17390;SDS011;8813;54.444;18.446;2023-01-01T09:32:27;6.78;;;5.45;;
17390;SDS011;8813;54.444;18.446;2023-01-01T09:34:58;9.52;;;5.18;;
17390;SDS011;8813;54.444;18.446;2023-01-01T09:37:29;8.75;;;4.75;;
17390;SDS011;8813;54.444;18.446;2023-01-01T09:39:58;7.95;;;5.10;;
17390;SDS011;8813;54.444;18.446;2023-01-01T09:42:31;7.82;;;5.10;;
17390;SDS011;8813;54.444;18.446;2023-01-01T09:45:04;8.32;;;5.57;;
17390;SDS011;8813;54.444;18.446;2023-01-01T09:47:44;7.65;;;5.57;;
17390;SDS011;8813;54.444;18.446;2023-01-01T09:50:16;8.85;;;5.70;;
17390;SDS011;8813;54.444;18.446;2023-01-01T09:52:47;8.05;;;5.43;;
17390;SDS011;8813;54.444;18.446;2023-01-01T09:55:23;9.45;;;5.65;;
17390;SDS011;8813;54.444;18.446;2023-01-01T09:57:53;6.80;;;5.35;;
17390;SDS011;8813;54.444;18.446;2023-01-01T10:00:23;7.30;;;5.30;;
17390;SDS011;8813;54.444;18.446;2023-01-01T10:02:55;7.45;;;5.40;;
17390;SDS011;8813;54.444;18.446;2023-01-01T10:05:44;6.18;;;4.70;;
17390;SDS011;8813;54.444;18.446;2023-01-01T10:08:27;11.55;;;5.20;;
17390;SDS011;8813;54.444;18.446;2023-01-01T10:11:04;6.15;;;4.63;;
17390;SDS011;8813;54.444;18.446;2023-01-01T10:13:37;6.03;;;4.28;;
17390;SDS011;8813;54.444;18.446;2023-01-01T10:16:08;5.43;;;4.82;;
17390;SDS011;8813;54.444;18.446;2023-01-01T10:18:43;10.25;;;5.28;;
17390;SDS011;8813;54.444;18.446;2023-01-01T10:21:22;11.32;;;5.32;;
17390;SDS011;8813;54.444;18.446;2023-01-01T10:24:11;6.72;;;4.95;;
17390;SDS011;8813;54.444;18.446;2023-01-01T10:27:22;6.28;;;4.97;;
17390;SDS011;8813;54.444;18.446;2023-01-01T10:29:53;8.43;;;5.40;;
17390;SDS011;8813;54.444;18.446;2023-01-01T10:32:27;4.93;;;4.45;;
17390;SDS011;8813;54.444;18.446;2023-01-01T10:34:56;8.18;;;5.32;;
17390;SDS011;8813;54.444;18.446;2023-01-01T10:37:24;6.53;;;4.60;;
17390;SDS011;8813;54.444;18.446;2023-01-01T10:39:55;6.07;;;5.00;;
17390;SDS011;8813;54.444;18.446;2023-01-01T10:42:27;8.90;;;4.70;;
17390;SDS011;8813;54.444;18.446;2023-01-01T10:44:56;6.05;;;5.20;;
17390;SDS011;8813;54.444;18.446;2023-01-01T10:47:30;10.10;;;4.93;;
17390;SDS011;8813;54.444;18.446;2023-01-01T10:49:59;5.32;;;4.72;;
17390;SDS011;8813;54.444;18.446;2023-01-01T10:52:33;8.43;;;4.93;;
17390;SDS011;8813;54.444;18.446;2023-01-01T10:55:01;8.20;;;5.05;;
17390;SDS011;8813;54.444;18.446;2023-01-01T10:57:34;6.80;;;5.25;;
17390;SDS011;8813;54.444;18.446;2023-01-01T11:00:08;8.48;;;5.30;;
17390;SDS011;8813;54.444;18.446;2023-01-01T11:02:38;8.80;;;4.85;;
17390;SDS011;8813;54.444;18.446;2023-01-01T11:05:12;6.60;;;4.65;;
17390;SDS011;8813;54.444;18.446;2023-01-01T11:07:43;5.72;;;4.57;;
17390;SDS011;8813;54.444;18.446;2023-01-01T11:10:14;12.18;;;4.75;;
17390;SDS011;8813;54.444;18.446;2023-01-01T11:12:48;8.57;;;4.93;;
17390;SDS011;8813;54.444;18.446;2023-01-01T11:15:21;9.40;;;4.38;;
17390;SDS011;8813;54.444;18.446;2023-01-01T11:17:51;10.18;;;4.97;;
17390;SDS011;8813;54.444;18.446;2023-01-01T11:20:29;9.23;;;4.75;;
17390;SDS011;8813;54.444;18.446;2023-01-01T11:22:56;7.78;;;4.22;;
17390;SDS011;8813;54.444;18.446;2023-01-01T11:25:25;6.40;;;4.55;;
17390;SDS011;8813;54.444;18.446;2023-01-01T11:30:46;7.18;;;4.75;;
17390;SDS011;8813;54.444;18.446;2023-01-01T11:33:26;6.63;;;4.60;;
17390;SDS011;8813;54.444;18.446;2023-01-01T11:35:56;7.50;;;5.15;;
17390;SDS011;8813;54.444;18.446;2023-01-01T11:38:25;5.72;;;4.50;;
17390;SDS011;8813;54.444;18.446;2023-01-01T11:40:55;9.00;;;4.93;;
17390;SDS011;8813;54.444;18.446;2023-01-01T11:43:29;6.63;;;5.03;;
17390;SDS011;8813;54.444;18.446;2023-01-01T11:46:04;6.45;;;5.13;;
17390;SDS011;8813;54.444;18.446;2023-01-01T11:48:33;6.75;;;5.10;;
17390;SDS011;8813;54.444;18.446;2023-01-01T11:51:03;4.80;;;4.07;;
17390;SDS011;8813;54.444;18.446;2023-01-01T11:53:32;6.47;;;4.85;;
17390;SDS011;8813;54.444;18.446;2023-01-01T11:56:03;6.95;;;4.53;;
17390;SDS011;8813;54.444;18.446;2023-01-01T11:58:39;5.78;;;4.45;;
17390;SDS011;8813;54.444;18.446;2023-01-01T12:01:12;5.95;;;4.88;;
17390;SDS011;8813;54.444;18.446;2023-01-01T12:03:44;7.57;;;4.22;;
17390;SDS011;8813;54.444;18.446;2023-01-01T12:06:18;5.97;;;3.55;;
17390;SDS011;8813;54.444;18.446;2023-01-01T12:08:50;6.18;;;4.00;;
17390;SDS011;8813;54.444;18.446;2023-01-01T12:11:22;6.00;;;3.85;;
17390;SDS011;8813;54.444;18.446;2023-01-01T12:13:55;7.00;;;4.30;;
17390;SDS011;8813;54.444;18.446;2023-01-01T12:16:26;5.63;;;3.50;;
17390;SDS011;8813;54.444;18.446;2023-01-01T12:19:04;5.55;;;4.00;;
17390;SDS011;8813;54.444;18.446;2023-01-01T12:21:36;4.47;;;4.05;;
17390;SDS011;8813;54.444;18.446;2023-01-01T12:24:08;6.93;;;4.32;;
17390;SDS011;8813;54.444;18.446;2023-01-01T12:26:51;7.40;;;4.22;;
17390;SDS011;8813;54.444;18.446;2023-01-01T12:29:33;7.63;;;3.45;;
17390;SDS011;8813;54.444;18.446;2023-01-01T12:32:08;4.03;;;3.60;;
17390;SDS011;8813;54.444;18.446;2023-01-01T12:34:40;3.80;;;3.40;;
17390;SDS011;8813;54.444;18.446;2023-01-01T12:37:13;4.40;;;3.58;;
17390;SDS011;8813;54.444;18.446;2023-01-01T12:39:52;6.28;;;3.58;;
17390;SDS011;8813;54.444;18.446;2023-01-01T12:42:49;4.20;;;3.75;;
17390;SDS011;8813;54.444;18.446;2023-01-01T12:45:28;7.47;;;3.42;;
17390;SDS011;8813;54.444;18.446;2023-01-01T12:48:34;7.95;;;3.38;;
17390;SDS011;8813;54.444;18.446;2023-01-01T12:51:13;6.85;;;3.33;;
17390;SDS011;8813;54.444;18.446;2023-01-01T12:53:51;6.38;;;3.65;;
17390;SDS011;8813;54.444;18.446;2023-01-01T12:56:27;4.70;;;3.63;;
17390;SDS011;8813;54.444;18.446;2023-01-01T12:58:59;6.20;;;3.08;;
17390;SDS011;8813;54.444;18.446;2023-01-01T13:01:30;4.80;;;3.45;;
17390;SDS011;8813;54.444;18.446;2023-01-01T13:03:59;5.30;;;3.75;;
17390;SDS011;8813;54.444;18.446;2023-01-01T13:06:30;5.15;;;3.72;;
17390;SDS011;8813;54.444;18.446;2023-01-01T13:09:03;4.05;;;3.65;;
17390;SDS011;8813;54.444;18.446;2023-01-01T13:11:33;6.95;;;4.10;;
17390;SDS011;8813;54.444;18.446;2023-01-01T13:14:02;5.70;;;3.28;;
17390;SDS011;8813;54.444;18.446;2023-01-01T13:16:34;4.10;;;3.10;;
17390;SDS011;8813;54.444;18.446;2023-01-01T13:19:03;6.60;;;3.03;;
17390;SDS011;8813;54.444;18.446;2023-01-01T13:21:30;5.72;;;3.30;;
17390;SDS011;8813;54.444;18.446;2023-01-01T13:23:59;6.70;;;2.08;;
17390;SDS011;8813;54.444;18.446;2023-01-01T13:26:40;1.95;;;1.85;;
17390;SDS011;8813;54.444;18.446;2023-01-01T13:32:02;1.50;;;1.50;;
17390;SDS011;8813;54.444;18.446;2023-01-01T13:34:35;1.42;;;1.42;;
17390;SDS011;8813;54.444;18.446;2023-01-01T13:39:52;2.88;;;2.05;;
17390;SDS011;8813;54.444;18.446;2023-01-01T13:42:36;0.95;;;0.95;;
17390;SDS011;8813;54.444;18.446;2023-01-01T13:45:17;1.67;;;1.63;;
17390;SDS011;8813;54.444;18.446;2023-01-01T13:47:55;1.65;;;1.55;;
17390;SDS011;8813;54.444;18.446;2023-01-01T13:50:38;3.38;;;1.80;;
17390;SDS011;8813;54.444;18.446;2023-01-01T13:53:20;1.05;;;1.05;;
17390;SDS011;8813;54.444;18.446;2023-01-01T13:55:56;2.17;;;1.10;;
17390;SDS011;8813;54.444;18.446;2023-01-01T14:01:35;1.35;;;1.25;;
17390;SDS011;8813;54.444;18.446;2023-01-01T14:04:11;1.48;;;1.38;;
17390;SDS011;8813;54.444;18.446;2023-01-01T14:06:43;4.55;;;4.30;;
17390;SDS011;8813;54.444;18.446;2023-01-01T14:09:15;1.92;;;1.85;;
17390;SDS011;8813;54.444;18.446;2023-01-01T14:11:45;1.85;;;1.70;;
17390;SDS011;8813;54.444;18.446;2023-01-01T14:14:22;9.63;;;2.83;;
17390;SDS011;8813;54.444;18.446;2023-01-01T14:16:57;1.52;;;1.42;;
17390;SDS011;8813;54.444;18.446;2023-01-01T14:19:29;1.98;;;1.88;;
17390;SDS011;8813;54.444;18.446;2023-01-01T14:21:56;1.95;;;1.85;;
17390;SDS011;8813;54.444;18.446;2023-01-01T14:24:24;4.65;;;3.92;;
17390;SDS011;8813;54.444;18.446;2023-01-01T14:26:52;1.15;;;1.15;;
17390;SDS011;8813;54.444;18.446;2023-01-01T14:29:21;1.45;;;1.45;;
17390;SDS011;8813;54.444;18.446;2023-01-01T14:31:52;1.60;;;1.48;;
17390;SDS011;8813;54.444;18.446;2023-01-01T14:34:22;1.40;;;1.40;;
17390;SDS011;8813;54.444;18.446;2023-01-01T14:36:52;1.80;;;1.35;;
17390;SDS011;8813;54.444;18.446;2023-01-01T14:39:22;1.58;;;1.48;;
17390;SDS011;8813;54.444;18.446;2023-01-01T14:41:51;1.77;;;1.45;;
17390;SDS011;8813;54.444;18.446;2023-01-01T14:44:21;2.08;;;1.48;;
17390;SDS011;8813;54.444;18.446;2023-01-01T14:46:50;5.50;;;1.67;;
17390;SDS011;8813;54.444;18.446;2023-01-01T14:49:18;1.55;;;1.45;;
17390;SDS011;8813;54.444;18.446;2023-01-01T14:51:49;6.38;;;5.82;;
17390;SDS011;8813;54.444;18.446;2023-01-01T14:54:21;2.20;;;1.40;;
17390;SDS011;8813;54.444;18.446;2023-01-01T14:56:53;4.20;;;2.08;;
17390;SDS011;8813;54.444;18.446;2023-01-01T14:59:21;1.15;;;1.13;;
17390;SDS011;8813;54.444;18.446;2023-01-01T15:01:57;1.80;;;1.75;;
17390;SDS011;8813;54.444;18.446;2023-01-01T15:04:25;3.50;;;1.90;;
17390;SDS011;8813;54.444;18.446;2023-01-01T15:06:54;2.92;;;1.92;;
17390;SDS011;8813;54.444;18.446;2023-01-01T15:09:22;1.58;;;1.58;;
17390;SDS011;8813;54.444;18.446;2023-01-01T15:11:49;3.67;;;2.50;;
17390;SDS011;8813;54.444;18.446;2023-01-01T15:14:27;1.83;;;1.73;;
17390;SDS011;8813;54.444;18.446;2023-01-01T15:16:59;10.35;;;7.18;;
17390;SDS011;8813;54.444;18.446;2023-01-01T15:19:27;2.17;;;2.00;;
17390;SDS011;8813;54.444;18.446;2023-01-01T15:21:55;2.28;;;1.90;;
17390;SDS011;8813;54.444;18.446;2023-01-01T15:24:23;1.00;;;1.00;;
17390;SDS011;8813;54.444;18.446;2023-01-01T15:26:53;3.00;;;1.60;;